sensor_id;sensor_type;location;lat;lon;timestamp;temperature;humidity
31133;DHT22;17779;50.942;4.026;2023-03-31T00:02:00;12.10;99.90
31133;DHT22;17779;50.942;4.026;2023-03-31T00:04:27;12.10;99.90
31133;DHT22;17779;50.942;4.026;2023-03-31T00:06:53;12.20;99.90
31133;DHT22;17779;50.942;4.026;2023-03-31T00:09:19;12.20;99.90
31133;DHT22;17779;50.942;4.026;2023-03-31T00:11:50;12.20;99.90
31133;DHT22;17779;50.942;4.026;2023-03-31T00:14:18;12.10;99.90
31133;DHT22;17779;50.942;4.026;2023-03-31T00:16:44;12.10;99.90
31133;DHT22;17779;50.942;4.026;2023-03-31T00:19:10;12.00;99.90
31133;DHT22;17779;50.942;4.026;2023-03-31T00:21:43;12.10;99.90
31133;DHT22;17779;50.942;4.026;2023-03-31T00:24:11;12.00;99.90
31133;DHT22;17779;50.942;4.026;2023-03-31T00:26:37;12.00;99.90
31133;DHT22;17779;50.942;4.026;2023-03-31T00:29:04;12.00;99.90
31133;DHT22;17779;50.942;4.026;2023-03-31T00:31:30;11.90;99.90
31133;DHT22;17779;50.942;4.026;2023-03-31T00:33:56;11.90;99.90
31133;DHT22;17779;50.942;4.026;2023-03-31T00:36:23;11.80;99.90
31133;DHT22;17779;50.942;4.026;2023-03-31T00:38:58;11.70;99.90
31133;DHT22;17779;50.942;4.026;2023-03-31T00:41:25;11.70;99.90
31133;DHT22;17779;50.942;4.026;2023-03-31T00:44:07;11.60;99.90
31133;DHT22;17779;50.942;4.026;2023-03-31T00:46:39;11.60;99.90
31133;DHT22;17779;50.942;4.026;2023-03-31T00:49:13;11.50;99.90
31133;DHT22;17779;50.942;4.026;2023-03-31T00:51:39;11.50;99.90
31133;DHT22;17779;50.942;4.026;2023-03-31T00:54:05;11.50;99.90
31133;DHT22;17779;50.942;4.026;2023-03-31T00:56:35;11.40;99.90
31133;DHT22;17779;50.942;4.026;2023-03-31T00:59:03;11.40;99.90
31133;DHT22;17779;50.942;4.026;2023-03-31T01:01:32;11.40;99.90
31133;DHT22;17779;50.942;4.026;2023-03-31T01:04:01;11.30;99.90
31133;DHT22;17779;50.942;4.026;2023-03-31T01:06:27;11.40;99.90
31133;DHT22;17779;50.942;4.026;2023-03-31T01:08:55;11.30;99.90
31133;DHT22;17779;50.942;4.026;2023-03-31T01:11:25;11.30;99.90
31133;DHT22;17779;50.942;4.026;2023-03-31T01:13:53;11.30;99.90
31133;DHT22;17779;50.942;4.026;2023-03-31T01:16:21;11.30;99.90
31133;DHT22;17779;50.942;4.026;2023-03-31T01:18:47;11.30;99.90
31133;DHT22;17779;50.942;4.026;2023-03-31T01:38:24;11.40;99.90
31133;DHT22;17779;50.942;4.026;2023-03-31T01:41:07;11.40;99.90
31133;DHT22;17779;50.942;4.026;2023-03-31T01:46:31;11.40;99.90
31133;DHT22;17779;50.942;4.026;2023-03-31T01:49:16;11.30;99.90
31133;DHT22;17779;50.942;4.026;2023-03-31T01:52:05;11.30;99.90
31133;DHT22;17779;50.942;4.026;2023-03-31T01:55:01;11.30;99.90
31133;DHT22;17779;50.942;4.026;2023-03-31T01:57:35;11.30;99.90
31133;DHT22;17779;50.942;4.026;2023-03-31T02:00:07;11.30;99.90
31133;DHT22;17779;50.942;4.026;2023-03-31T02:05:15;11.30;99.90
31133;DHT22;17779;50.942;4.026;2023-03-31T02:07:47;11.20;99.90
31133;DHT22;17779;50.942;4.026;2023-03-31T02:10:16;11.20;99.90
31133;DHT22;17779;50.942;4.026;2023-03-31T02:12:43;11.20;99.90
31133;DHT22;17779;50.942;4.026;2023-03-31T02:15:17;11.10;99.90
31133;DHT22;17779;50.942;4.026;2023-03-31T02:17:50;11.10;99.90
31133;DHT22;17779;50.942;4.026;2023-03-31T02:20:20;11.10;99.90
31133;DHT22;17779;50.942;4.026;2023-03-31T02:22:49;11.10;99.90
31133;DHT22;17779;50.942;4.026;2023-03-31T02:25:19;11.00;99.90
31133;DHT22;17779;50.942;4.026;2023-03-31T02:27:57;11.00;99.90
31133;DHT22;17779;50.942;4.026;2023-03-31T02:30:29;11.00;99.90
31133;DHT22;17779;50.942;4.026;2023-03-31T02:32:58;11.00;99.90
31133;DHT22;17779;50.942;4.026;2023-03-31T02:35:24;10.90;99.90
31133;DHT22;17779;50.942;4.026;2023-03-31T02:37:50;10.90;99.90
31133;DHT22;17779;50.942;4.026;2023-03-31T02:40:19;10.90;99.90
31133;DHT22;17779;50.942;4.026;2023-03-31T02:42:47;10.90;99.90
31133;DHT22;17779;50.942;4.026;2023-03-31T02:45:35;10.80;99.90
31133;DHT22;17779;50.942;4.026;2023-03-31T02:48:02;10.80;99.90
31133;DHT22;17779;50.942;4.026;2023-03-31T02:50:33;10.80;99.90
31133;DHT22;17779;50.942;4.026;2023-03-31T03:04:54;10.80;99.90
31133;DHT22;17779;50.942;4.026;2023-03-31T03:12:52;10.80;99.90
31133;DHT22;17779;50.942;4.026;2023-03-31T03:15:44;10.70;99.90
31133;DHT22;17779;50.942;4.026;2023-03-31T03:18:12;10.70;99.90
31133;DHT22;17779;50.942;4.026;2023-03-31T03:20:40;10.60;99.90
31133;DHT22;17779;50.942;4.026;2023-03-31T03:23:06;10.60;99.90
31133;DHT22;17779;50.942;4.026;2023-03-31T03:25:32;10.60;99.90
31133;DHT22;17779;50.942;4.026;2023-03-31T03:27:58;10.50;99.90
31133;DHT22;17779;50.942;4.026;2023-03-31T03:30:24;10.40;99.90
31133;DHT22;17779;50.942;4.026;2023-03-31T03:32:50;10.40;99.90
31133;DHT22;17779;50.942;4.026;2023-03-31T03:35:16;10.50;99.90
31133;DHT22;17779;50.942;4.026;2023-03-31T03:37:42;10.40;99.90
31133;DHT22;17779;50.942;4.026;2023-03-31T03:40:08;10.40;99.90
31133;DHT22;17779;50.942;4.026;2023-03-31T03:42:34;10.40;99.90
31133;DHT22;17779;50.942;4.026;2023-03-31T03:45:00;10.40;99.90
31133;DHT22;17779;50.942;4.026;2023-03-31T03:47:27;10.40;99.90
31133;DHT22;17779;50.942;4.026;2023-03-31T03:49:52;10.40;99.90
31133;DHT22;17779;50.942;4.026;2023-03-31T03:52:18;10.30;99.90
31133;DHT22;17779;50.942;4.026;2023-03-31T03:54:45;10.30;99.90
31133;DHT22;17779;50.942;4.026;2023-03-31T03:57:11;10.30;99.90
31133;DHT22;17779;50.942;4.026;2023-03-31T03:59:37;10.40;99.90
31133;DHT22;17779;50.942;4.026;2023-03-31T04:02:03;10.40;99.90
31133;DHT22;17779;50.942;4.026;2023-03-31T04:04:28;10.40;99.90
31133;DHT22;17779;50.942;4.026;2023-03-31T04:06:54;10.40;99.90
31133;DHT22;17779;50.942;4.026;2023-03-31T04:09:20;10.40;99.90
31133;DHT22;17779;50.942;4.026;2023-03-31T04:11:45;10.30;99.90
31133;DHT22;17779;50.942;4.026;2023-03-31T04:14:11;10.30;99.90
31133;DHT22;17779;50.942;4.026;2023-03-31T04:16:38;10.20;99.90
31133;DHT22;17779;50.942;4.026;2023-03-31T04:19:05;10.20;99.90
31133;DHT22;17779;50.942;4.026;2023-03-31T04:21:31;10.20;99.90
31133;DHT22;17779;50.942;4.026;2023-03-31T04:23:59;10.10;99.90
31133;DHT22;17779;50.942;4.026;2023-03-31T04:26:33;10.10;99.90
31133;DHT22;17779;50.942;4.026;2023-03-31T04:29:12;10.00;99.90
31133;DHT22;17779;50.942;4.026;2023-03-31T04:31:39;10.00;99.90
31133;DHT22;17779;50.942;4.026;2023-03-31T04:34:09;10.00;99.90
31133;DHT22;17779;50.942;4.026;2023-03-31T04:36:40;10.00;99.90
31133;DHT22;17779;50.942;4.026;2023-03-31T04:39:08;10.00;99.90
31133;DHT22;17779;50.942;4.026;2023-03-31T04:41:37;10.00;99.90
31133;DHT22;17779;50.942;4.026;2023-03-31T04:44:03;10.00;99.90
31133;DHT22;17779;50.942;4.026;2023-03-31T04:46:29;10.10;99.90
31133;DHT22;17779;50.942;4.026;2023-03-31T04:48:54;10.10;99.90
31133;DHT22;17779;50.942;4.026;2023-03-31T04:51:21;10.10;99.90
31133;DHT22;17779;50.942;4.026;2023-03-31T04:53:47;10.20;99.90
31133;DHT22;17779;50.942;4.026;2023-03-31T04:56:13;10.20;99.90
31133;DHT22;17779;50.942;4.026;2023-03-31T04:58:40;10.30;99.90
31133;DHT22;17779;50.942;4.026;2023-03-31T05:01:06;10.30;99.90
31133;DHT22;17779;50.942;4.026;2023-03-31T05:03:32;10.30;99.90
31133;DHT22;17779;50.942;4.026;2023-03-31T05:05:58;10.40;99.90
31133;DHT22;17779;50.942;4.026;2023-03-31T05:08:24;10.50;99.90
31133;DHT22;17779;50.942;4.026;2023-03-31T05:10:51;10.60;99.90
31133;DHT22;17779;50.942;4.026;2023-03-31T05:13:17;10.60;99.90
31133;DHT22;17779;50.942;4.026;2023-03-31T05:15:43;10.60;99.90
31133;DHT22;17779;50.942;4.026;2023-03-31T05:18:15;10.70;99.90
31133;DHT22;17779;50.942;4.026;2023-03-31T05:20:41;10.70;99.90
31133;DHT22;17779;50.942;4.026;2023-03-31T05:23:07;10.70;99.90
31133;DHT22;17779;50.942;4.026;2023-03-31T05:25:33;10.80;99.90
31133;DHT22;17779;50.942;4.026;2023-03-31T05:27:59;10.80;99.90
31133;DHT22;17779;50.942;4.026;2023-03-31T05:30:26;10.90;99.90
31133;DHT22;17779;50.942;4.026;2023-03-31T05:32:52;10.90;99.90
31133;DHT22;17779;50.942;4.026;2023-03-31T05:35:18;10.90;99.90
31133;DHT22;17779;50.942;4.026;2023-03-31T05:37:43;10.90;99.90
31133;DHT22;17779;50.942;4.026;2023-03-31T05:40:09;10.90;99.90
31133;DHT22;17779;50.942;4.026;2023-03-31T05:42:36;10.90;99.90
31133;DHT22;17779;50.942;4.026;2023-03-31T05:45:02;11.00;99.90
31133;DHT22;17779;50.942;4.026;2023-03-31T05:47:28;11.10;99.90
31133;DHT22;17779;50.942;4.026;2023-03-31T05:49:53;11.10;99.90
31133;DHT22;17779;50.942;4.026;2023-03-31T05:52:19;11.10;99.90
31133;DHT22;17779;50.942;4.026;2023-03-31T05:54:45;11.20;99.90
31133;DHT22;17779;50.942;4.026;2023-03-31T05:57:11;11.20;99.90
31133;DHT22;17779;50.942;4.026;2023-03-31T05:59:37;11.20;99.90
31133;DHT22;17779;50.942;4.026;2023-03-31T06:02:03;11.30;99.90
31133;DHT22;17779;50.942;4.026;2023-03-31T06:04:29;11.30;99.90
31133;DHT22;17779;50.942;4.026;2023-03-31T06:06:58;11.30;99.90
31133;DHT22;17779;50.942;4.026;2023-03-31T06:09:25;11.30;99.90
31133;DHT22;17779;50.942;4.026;2023-03-31T06:11:51;11.30;99.90
31133;DHT22;17779;50.942;4.026;2023-03-31T06:14:17;11.30;99.90
31133;DHT22;17779;50.942;4.026;2023-03-31T06:16:42;11.40;99.90
31133;DHT22;17779;50.942;4.026;2023-03-31T06:19:08;11.40;99.90
31133;DHT22;17779;50.942;4.026;2023-03-31T06:21:34;11.40;99.90
31133;DHT22;17779;50.942;4.026;2023-03-31T06:24:00;11.40;99.90
31133;DHT22;17779;50.942;4.026;2023-03-31T06:26:27;11.40;99.90
31133;DHT22;17779;50.942;4.026;2023-03-31T06:28:53;11.40;99.90
31133;DHT22;17779;50.942;4.026;2023-03-31T06:31:21;11.40;99.90
31133;DHT22;17779;50.942;4.026;2023-03-31T06:33:48;11.50;99.90
31133;DHT22;17779;50.942;4.026;2023-03-31T06:36:15;11.50;99.90
31133;DHT22;17779;50.942;4.026;2023-03-31T06:38:43;11.60;99.90
31133;DHT22;17779;50.942;4.026;2023-03-31T06:41:12;11.60;99.90
31133;DHT22;17779;50.942;4.026;2023-03-31T06:43:38;11.60;99.90
31133;DHT22;17779;50.942;4.026;2023-03-31T06:46:04;11.70;99.90
31133;DHT22;17779;50.942;4.026;2023-03-31T06:48:30;11.70;99.90
31133;DHT22;17779;50.942;4.026;2023-03-31T06:50:59;11.70;99.90
31133;DHT22;17779;50.942;4.026;2023-03-31T06:53:27;11.70;99.90
31133;DHT22;17779;50.942;4.026;2023-03-31T06:55:53;11.80;99.90
31133;DHT22;17779;50.942;4.026;2023-03-31T06:58:19;11.80;99.90
31133;DHT22;17779;50.942;4.026;2023-03-31T07:00:46;11.80;99.90
31133;DHT22;17779;50.942;4.026;2023-03-31T07:03:14;11.90;99.90
31133;DHT22;17779;50.942;4.026;2023-03-31T07:05:48;12.00;99.90
31133;DHT22;17779;50.942;4.026;2023-03-31T07:08:14;12.00;99.90
31133;DHT22;17779;50.942;4.026;2023-03-31T07:10:42;11.90;99.90
31133;DHT22;17779;50.942;4.026;2023-03-31T07:13:08;11.90;99.90
31133;DHT22;17779;50.942;4.026;2023-03-31T07:15:34;11.80;99.90
31133;DHT22;17779;50.942;4.026;2023-03-31T07:18:00;11.80;99.90
31133;DHT22;17779;50.942;4.026;2023-03-31T07:20:29;11.90;99.90
31133;DHT22;17779;50.942;4.026;2023-03-31T07:22:55;11.80;99.90
31133;DHT22;17779;50.942;4.026;2023-03-31T07:25:21;11.80;99.90
31133;DHT22;17779;50.942;4.026;2023-03-31T07:27:47;11.80;99.90
31133;DHT22;17779;50.942;4.026;2023-03-31T07:30:15;11.90;99.90
31133;DHT22;17779;50.942;4.026;2023-03-31T07:32:41;11.90;99.90
31133;DHT22;17779;50.942;4.026;2023-03-31T07:35:08;11.90;99.90
31133;DHT22;17779;50.942;4.026;2023-03-31T07:37:38;11.90;99.90
31133;DHT22;17779;50.942;4.026;2023-03-31T07:40:05;11.90;99.90
31133;DHT22;17779;50.942;4.026;2023-03-31T07:42:31;11.90;99.90
31133;DHT22;17779;50.942;4.026;2023-03-31T07:44:57;11.90;99.90
31133;DHT22;17779;50.942;4.026;2023-03-31T07:47:23;11.90;99.90
31133;DHT22;17779;50.942;4.026;2023-03-31T07:49:49;11.90;99.90
31133;DHT22;17779;50.942;4.026;2023-03-31T07:52:15;11.90;99.90
31133;DHT22;17779;50.942;4.026;2023-03-31T07:54:42;11.90;99.90
31133;DHT22;17779;50.942;4.026;2023-03-31T07:57:09;11.90;99.90
31133;DHT22;17779;50.942;4.026;2023-03-31T07:59:35;11.80;99.90
31133;DHT22;17779;50.942;4.026;2023-03-31T08:02:01;11.70;99.90
31133;DHT22;17779;50.942;4.026;2023-03-31T08:04:26;11.70;99.90
31133;DHT22;17779;50.942;4.026;2023-03-31T08:06:52;11.60;99.90
31133;DHT22;17779;50.942;4.026;2023-03-31T08:09:19;11.70;99.90
31133;DHT22;17779;50.942;4.026;2023-03-31T08:11:47;11.70;99.90
31133;DHT22;17779;50.942;4.026;2023-03-31T08:14:12;11.70;99.90
31133;DHT22;17779;50.942;4.026;2023-03-31T08:16:39;11.70;99.90
31133;DHT22;17779;50.942;4.026;2023-03-31T08:19:05;11.80;99.90
31133;DHT22;17779;50.942;4.026;2023-03-31T08:21:31;12.00;99.90
31133;DHT22;17779;50.942;4.026;2023-03-31T08:23:57;12.10;99.90
31133;DHT22;17779;50.942;4.026;2023-03-31T08:26:23;12.10;99.90
31133;DHT22;17779;50.942;4.026;2023-03-31T08:28:50;12.20;99.90
31133;DHT22;17779;50.942;4.026;2023-03-31T08:31:17;12.20;99.90
31133;DHT22;17779;50.942;4.026;2023-03-31T08:33:44;12.20;99.90
31133;DHT22;17779;50.942;4.026;2023-03-31T08:36:10;12.10;99.90
31133;DHT22;17779;50.942;4.026;2023-03-31T08:38:41;12.20;99.90
31133;DHT22;17779;50.942;4.026;2023-03-31T08:41:23;12.10;99.90
31133;DHT22;17779;50.942;4.026;2023-03-31T08:43:53;12.10;99.90
31133;DHT22;17779;50.942;4.026;2023-03-31T08:46:20;12.20;99.90
31133;DHT22;17779;50.942;4.026;2023-03-31T08:48:53;12.30;99.90
31133;DHT22;17779;50.942;4.026;2023-03-31T08:51:40;12.50;99.90
31133;DHT22;17779;50.942;4.026;2023-03-31T08:54:39;12.50;99.90
31133;DHT22;17779;50.942;4.026;2023-03-31T08:57:18;12.50;99.90
31133;DHT22;17779;50.942;4.026;2023-03-31T08:59:45;12.50;99.90
31133;DHT22;17779;50.942;4.026;2023-03-31T09:02:27;12.50;99.90
31133;DHT22;17779;50.942;4.026;2023-03-31T09:10:45;12.50;99.90
31133;DHT22;17779;50.942;4.026;2023-03-31T09:16:14;12.60;99.90
31133;DHT22;17779;50.942;4.026;2023-03-31T09:18:42;12.60;99.90
31133;DHT22;17779;50.942;4.026;2023-03-31T09:27:23;12.60;99.90
31133;DHT22;17779;50.942;4.026;2023-03-31T09:29:38;12.70;99.90
31133;DHT22;17779;50.942;4.026;2023-03-31T09:32:18;12.90;99.90
31133;DHT22;17779;50.942;4.026;2023-03-31T09:34:45;12.80;99.90
31133;DHT22;17779;50.942;4.026;2023-03-31T09:37:12;12.80;99.90
31133;DHT22;17779;50.942;4.026;2023-03-31T09:39:39;12.80;99.90
31133;DHT22;17779;50.942;4.026;2023-03-31T09:42:05;12.80;99.90
31133;DHT22;17779;50.942;4.026;2023-03-31T09:46:59;12.70;99.90
31133;DHT22;17779;50.942;4.026;2023-03-31T09:49:28;12.60;99.90
31133;DHT22;17779;50.942;4.026;2023-03-31T09:54:53;12.70;99.90
31133;DHT22;17779;50.942;4.026;2023-03-31T09:57:27;12.80;99.90
31133;DHT22;17779;50.942;4.026;2023-03-31T09:59:53;12.80;99.90
31133;DHT22;17779;50.942;4.026;2023-03-31T10:04:57;12.70;99.90
31133;DHT22;17779;50.942;4.026;2023-03-31T10:07:24;12.70;99.90
31133;DHT22;17779;50.942;4.026;2023-03-31T10:09:51;13.00;99.90
31133;DHT22;17779;50.942;4.026;2023-03-31T10:12:24;13.10;99.90
31133;DHT22;17779;50.942;4.026;2023-03-31T10:14:53;13.20;99.90
31133;DHT22;17779;50.942;4.026;2023-03-31T10:17:23;13.10;99.90
31133;DHT22;17779;50.942;4.026;2023-03-31T10:19:54;13.20;99.90
31133;DHT22;17779;50.942;4.026;2023-03-31T10:24:51;13.20;99.90
31133;DHT22;17779;50.942;4.026;2023-03-31T10:27:28;13.10;99.90
31133;DHT22;17779;50.942;4.026;2023-03-31T10:30:03;13.30;99.90
31133;DHT22;17779;50.942;4.026;2023-03-31T10:32:42;13.40;99.90
31133;DHT22;17779;50.942;4.026;2023-03-31T10:35:29;13.30;99.90
31133;DHT22;17779;50.942;4.026;2023-03-31T10:38:01;13.50;99.90
31133;DHT22;17779;50.942;4.026;2023-03-31T10:40:30;13.40;99.90
31133;DHT22;17779;50.942;4.026;2023-03-31T10:43:14;13.50;99.90
31133;DHT22;17779;50.942;4.026;2023-03-31T10:45:49;13.60;99.90
31133;DHT22;17779;50.942;4.026;2023-03-31T10:48:18;13.50;99.90
31133;DHT22;17779;50.942;4.026;2023-03-31T10:50:47;13.20;99.90
31133;DHT22;17779;50.942;4.026;2023-03-31T10:53:15;13.20;99.90
31133;DHT22;17779;50.942;4.026;2023-03-31T11:04:05;12.70;99.90
31133;DHT22;17779;50.942;4.026;2023-03-31T11:06:56;12.80;99.90
31133;DHT22;17779;50.942;4.026;2023-03-31T11:20:15;12.90;99.90
31133;DHT22;17779;50.942;4.026;2023-03-31T11:28:31;13.00;99.90
31133;DHT22;17779;50.942;4.026;2023-03-31T11:36:53;13.20;99.90
31133;DHT22;17779;50.942;4.026;2023-03-31T11:39:26;12.90;99.90
31133;DHT22;17779;50.942;4.026;2023-03-31T11:41:58;12.70;99.90
31133;DHT22;17779;50.942;4.026;2023-03-31T11:44:29;12.60;99.90
31133;DHT22;17779;50.942;4.026;2023-03-31T11:47:06;12.50;99.90
31133;DHT22;17779;50.942;4.026;2023-03-31T11:50:05;12.50;99.90
31133;DHT22;17779;50.942;4.026;2023-03-31T11:52:38;12.50;99.90
31133;DHT22;17779;50.942;4.026;2023-03-31T11:55:15;12.40;99.90
31133;DHT22;17779;50.942;4.026;2023-03-31T12:00:22;12.20;99.90
31133;DHT22;17779;50.942;4.026;2023-03-31T12:03:07;12.20;99.90
31133;DHT22;17779;50.942;4.026;2023-03-31T12:05:39;12.10;99.90
31133;DHT22;17779;50.942;4.026;2023-03-31T12:08:17;12.10;99.90
31133;DHT22;17779;50.942;4.026;2023-03-31T12:11:01;12.10;99.90
31133;DHT22;17779;50.942;4.026;2023-03-31T12:16:45;12.10;99.90
31133;DHT22;17779;50.942;4.026;2023-03-31T12:21:57;12.30;99.90
31133;DHT22;17779;50.942;4.026;2023-03-31T12:24:33;12.30;99.90
31133;DHT22;17779;50.942;4.026;2023-03-31T12:27:19;12.30;99.90
31133;DHT22;17779;50.942;4.026;2023-03-31T12:30:00;12.20;99.90
31133;DHT22;17779;50.942;4.026;2023-03-31T12:32:30;12.30;99.90
31133;DHT22;17779;50.942;4.026;2023-03-31T12:35:25;12.20;99.90
31133;DHT22;17779;50.942;4.026;2023-03-31T12:38:22;12.20;99.90
31133;DHT22;17779;50.942;4.026;2023-03-31T12:43:59;12.20;99.90
31133;DHT22;17779;50.942;4.026;2023-03-31T12:54:47;12.20;99.90
31133;DHT22;17779;50.942;4.026;2023-03-31T12:57:21;12.20;99.90
31133;DHT22;17779;50.942;4.026;2023-03-31T13:02:42;12.30;99.90
31133;DHT22;17779;50.942;4.026;2023-03-31T13:08:06;12.60;99.90
31133;DHT22;17779;50.942;4.026;2023-03-31T13:10:50;12.60;99.90
31133;DHT22;17779;50.942;4.026;2023-03-31T13:13:18;12.50;99.90
31133;DHT22;17779;50.942;4.026;2023-03-31T13:15:55;12.40;99.90
31133;DHT22;17779;50.942;4.026;2023-03-31T13:18:22;12.60;99.90
31133;DHT22;17779;50.942;4.026;2023-03-31T13:20:59;12.80;99.90
31133;DHT22;17779;50.942;4.026;2023-03-31T13:23:30;12.90;99.90
31133;DHT22;17779;50.942;4.026;2023-03-31T13:25:58;13.00;99.90
31133;DHT22;17779;50.942;4.026;2023-03-31T13:28:27;13.00;99.90
31133;DHT22;17779;50.942;4.026;2023-03-31T13:31:01;12.90;99.90
31133;DHT22;17779;50.942;4.026;2023-03-31T13:36:35;12.60;99.90
31133;DHT22;17779;50.942;4.026;2023-03-31T13:44:41;12.70;99.90
31133;DHT22;17779;50.942;4.026;2023-03-31T13:47:09;12.70;99.90
31133;DHT22;17779;50.942;4.026;2023-03-31T14:01:29;12.30;99.90
31133;DHT22;17779;50.942;4.026;2023-03-31T14:06:59;12.20;99.90
31133;DHT22;17779;50.942;4.026;2023-03-31T14:09:33;12.40;99.90
31133;DHT22;17779;50.942;4.026;2023-03-31T14:12:00;12.40;99.90
31133;DHT22;17779;50.942;4.026;2023-03-31T14:14:26;12.10;99.90
31133;DHT22;17779;50.942;4.026;2023-03-31T14:16:58;12.00;99.90
31133;DHT22;17779;50.942;4.026;2023-03-31T14:22:51;12.10;99.90
31133;DHT22;17779;50.942;4.026;2023-03-31T14:25:43;12.30;99.90
31133;DHT22;17779;50.942;4.026;2023-03-31T14:31:27;12.20;99.90
31133;DHT22;17779;50.942;4.026;2023-03-31T14:37:06;12.10;99.90
31133;DHT22;17779;50.942;4.026;2023-03-31T14:39:45;12.00;99.90
31133;DHT22;17779;50.942;4.026;2023-03-31T14:42:13;11.90;99.90
31133;DHT22;17779;50.942;4.026;2023-03-31T14:44:41;11.90;99.90
31133;DHT22;17779;50.942;4.026;2023-03-31T14:47:25;11.70;99.90
31133;DHT22;17779;50.942;4.026;2023-03-31T14:50:11;11.70;99.90
31133;DHT22;17779;50.942;4.026;2023-03-31T14:52:37;11.60;99.90
31133;DHT22;17779;50.942;4.026;2023-03-31T14:55:03;11.60;99.90
31133;DHT22;17779;50.942;4.026;2023-03-31T14:57:35;11.50;99.90
31133;DHT22;17779;50.942;4.026;2023-03-31T15:00:07;11.50;99.90
31133;DHT22;17779;50.942;4.026;2023-03-31T15:02:36;11.50;99.90
31133;DHT22;17779;50.942;4.026;2023-03-31T15:05:09;11.50;99.90
31133;DHT22;17779;50.942;4.026;2023-03-31T15:07:40;11.40;99.90
31133;DHT22;17779;50.942;4.026;2023-03-31T15:10:06;11.40;99.90
31133;DHT22;17779;50.942;4.026;2023-03-31T15:12:33;11.50;99.90
31133;DHT22;17779;50.942;4.026;2023-03-31T15:15:05;11.60;99.90
31133;DHT22;17779;50.942;4.026;2023-03-31T15:17:36;11.70;99.90
31133;DHT22;17779;50.942;4.026;2023-03-31T15:20:28;11.80;99.90
31133;DHT22;17779;50.942;4.026;2023-03-31T15:22:58;11.80;99.90
31133;DHT22;17779;50.942;4.026;2023-03-31T15:25:36;11.90;99.90
31133;DHT22;17779;50.942;4.026;2023-03-31T15:28:05;12.00;99.90
31133;DHT22;17779;50.942;4.026;2023-03-31T15:30:32;12.10;99.90
31133;DHT22;17779;50.942;4.026;2023-03-31T15:32:58;12.10;99.90
31133;DHT22;17779;50.942;4.026;2023-03-31T15:35:32;12.00;99.90
31133;DHT22;17779;50.942;4.026;2023-03-31T15:38:02;12.00;99.90
31133;DHT22;17779;50.942;4.026;2023-03-31T15:40:29;11.90;99.90
31133;DHT22;17779;50.942;4.026;2023-03-31T15:42:58;11.90;99.90
31133;DHT22;17779;50.942;4.026;2023-03-31T15:48:31;12.00;99.90
31133;DHT22;17779;50.942;4.026;2023-03-31T15:51:18;12.00;99.90
31133;DHT22;17779;50.942;4.026;2023-03-31T15:53:47;11.90;99.90
31133;DHT22;17779;50.942;4.026;2023-03-31T15:56:29;12.10;99.90
31133;DHT22;17779;50.942;4.026;2023-03-31T15:58:57;12.10;99.90
31133;DHT22;17779;50.942;4.026;2023-03-31T16:01:26;12.10;99.90
31133;DHT22;17779;50.942;4.026;2023-03-31T16:03:55;12.20;99.90
31133;DHT22;17779;50.942;4.026;2023-03-31T16:09:14;12.00;99.90
31133;DHT22;17779;50.942;4.026;2023-03-31T16:11:48;11.90;99.90
31133;DHT22;17779;50.942;4.026;2023-03-31T16:14:25;11.80;99.90
31133;DHT22;17779;50.942;4.026;2023-03-31T16:17:03;11.80;99.90
31133;DHT22;17779;50.942;4.026;2023-03-31T16:19:37;11.80;99.90
31133;DHT22;17779;50.942;4.026;2023-03-31T16:22:04;11.90;99.90
31133;DHT22;17779;50.942;4.026;2023-03-31T16:24:31;11.90;99.90
31133;DHT22;17779;50.942;4.026;2023-03-31T16:26:59;12.00;99.90
31133;DHT22;17779;50.942;4.026;2023-03-31T16:29:25;12.00;99.90
31133;DHT22;17779;50.942;4.026;2023-03-31T16:32:07;12.00;99.90
31133;DHT22;17779;50.942;4.026;2023-03-31T16:34:33;11.80;99.90
31133;DHT22;17779;50.942;4.026;2023-03-31T16:36:59;11.80;99.90
31133;DHT22;17779;50.942;4.026;2023-03-31T16:39:32;11.70;99.90
31133;DHT22;17779;50.942;4.026;2023-03-31T16:41:58;11.50;99.90
31133;DHT22;17779;50.942;4.026;2023-03-31T16:44:24;11.40;99.90
31133;DHT22;17779;50.942;4.026;2023-03-31T16:46:52;11.30;99.90
31133;DHT22;17779;50.942;4.026;2023-03-31T16:49:18;11.20;99.90
31133;DHT22;17779;50.942;4.026;2023-03-31T16:51:43;11.20;99.90
31133;DHT22;17779;50.942;4.026;2023-03-31T16:54:09;11.20;99.90
31133;DHT22;17779;50.942;4.026;2023-03-31T16:56:36;11.00;99.90
31133;DHT22;17779;50.942;4.026;2023-03-31T16:59:01;11.00;99.90
31133;DHT22;17779;50.942;4.026;2023-03-31T17:01:28;10.90;99.90
31133;DHT22;17779;50.942;4.026;2023-03-31T17:03:53;10.90;99.90
31133;DHT22;17779;50.942;4.026;2023-03-31T17:06:19;10.90;99.90
31133;DHT22;17779;50.942;4.026;2023-03-31T17:08:45;10.80;99.90
31133;DHT22;17779;50.942;4.026;2023-03-31T17:11:12;10.90;99.90
31133;DHT22;17779;50.942;4.026;2023-03-31T17:13:39;10.80;99.90
31133;DHT22;17779;50.942;4.026;2023-03-31T17:16:06;10.90;99.90
31133;DHT22;17779;50.942;4.026;2023-03-31T17:18:32;10.90;99.90
31133;DHT22;17779;50.942;4.026;2023-03-31T17:21:06;10.90;99.90
31133;DHT22;17779;50.942;4.026;2023-03-31T17:23:32;10.90;99.90
31133;DHT22;17779;50.942;4.026;2023-03-31T17:25:58;10.90;99.90
31133;DHT22;17779;50.942;4.026;2023-03-31T17:28:23;10.90;99.90
31133;DHT22;17779;50.942;4.026;2023-03-31T17:30:49;10.90;99.90
31133;DHT22;17779;50.942;4.026;2023-03-31T17:33:15;10.90;99.90
31133;DHT22;17779;50.942;4.026;2023-03-31T17:35:41;11.00;99.90
31133;DHT22;17779;50.942;4.026;2023-03-31T17:38:08;10.90;99.90
31133;DHT22;17779;50.942;4.026;2023-03-31T17:40:34;10.90;99.90
31133;DHT22;17779;50.942;4.026;2023-03-31T17:43:00;10.90;99.90
31133;DHT22;17779;50.942;4.026;2023-03-31T17:45:28;10.80;99.90
31133;DHT22;17779;50.942;4.026;2023-03-31T17:47:54;10.80;99.90
31133;DHT22;17779;50.942;4.026;2023-03-31T17:50:20;10.70;99.90
31133;DHT22;17779;50.942;4.026;2023-03-31T17:52:46;10.80;99.90
31133;DHT22;17779;50.942;4.026;2023-03-31T17:55:12;10.70;99.90
31133;DHT22;17779;50.942;4.026;2023-03-31T17:57:39;10.80;99.90
31133;DHT22;17779;50.942;4.026;2023-03-31T18:00:08;10.70;99.90
31133;DHT22;17779;50.942;4.026;2023-03-31T18:02:41;10.70;99.90
31133;DHT22;17779;50.942;4.026;2023-03-31T18:05:08;10.70;99.90
31133;DHT22;17779;50.942;4.026;2023-03-31T18:07:34;10.70;99.90
31133;DHT22;17779;50.942;4.026;2023-03-31T18:10:01;10.70;99.90
31133;DHT22;17779;50.942;4.026;2023-03-31T18:12:33;10.70;99.90
31133;DHT22;17779;50.942;4.026;2023-03-31T18:15:01;10.70;99.90
31133;DHT22;17779;50.942;4.026;2023-03-31T18:17:29;10.70;99.90
31133;DHT22;17779;50.942;4.026;2023-03-31T18:19:55;10.70;99.90
31133;DHT22;17779;50.942;4.026;2023-03-31T18:22:21;10.70;99.90
31133;DHT22;17779;50.942;4.026;2023-03-31T18:24:47;10.70;99.90
31133;DHT22;17779;50.942;4.026;2023-03-31T18:27:13;10.70;99.90